Monse, Washington
Current Conditions -  °F | °C
As of 6:31 AM on Sunday 25 Jan 2015 (Local Time) from KOMK Reporting Station
Haze Haze  
Wind Chill: 34°   Ceiling: 600
Heat Index: 34°   Visibility: 1mi
Dew Point: 33°   Wind: 0mph
Humidity: 96%   Direction: NA
Pressure: 30.25"   Gusts: NA
Location:  48.2133°N, 119.829°W
Report Text: KOMK 251431Z AUTO 00000KT 1SM BR OVC006 01/01 A3025 RMK AO2 T00110006
Loading
Personal Weather Stations






























Interactive Weather Map New forecast layout! Learn more

10-Day Weather Forecast

Advertisements
Track Severe Weather on mobile